createdAt,value
2022-09-18T00:01:39.932Z,100342.28
2022-09-18T00:04:16.598Z,100355.88
2022-09-18T00:06:45.478Z,100353.94
2022-09-18T00:09:15.757Z,100353.97
2022-09-18T00:11:46.980Z,100348.78
2022-09-18T00:14:18.925Z,100347.09
2022-09-18T00:16:49.661Z,100356.59
2022-09-18T00:19:20.571Z,100348.75
2022-09-18T00:21:51.543Z,100355.84
2022-09-18T00:24:20.450Z,100355.72
2022-09-18T00:26:50.279Z,100350.44
2022-09-18T00:29:18.528Z,100365.28
2022-09-18T00:31:46.799Z,100355.72
2022-09-18T00:34:15.667Z,100362.78
2022-09-18T00:36:44.980Z,100363.47
2022-09-18T00:39:13.018Z,100362.69
2022-09-18T00:41:44.472Z,100366.25
2022-09-18T00:44:35.348Z,100364.41
2022-09-18T00:47:17.614Z,100366.09
2022-09-18T00:49:51.247Z,100362.63
2022-09-18T00:52:30.873Z,100362.78
2022-09-18T00:55:08.148Z,100356.59
2022-09-18T00:57:43.252Z,100362.78
2022-09-18T01:00:12.476Z,100365.44
2022-09-18T01:02:42.897Z,100359.28
2022-09-18T01:05:14.051Z,100359.19
2022-09-18T01:08:08.707Z,100357.34
2022-09-18T01:10:53.337Z,100355.94
2022-09-18T01:13:36.065Z,100359.19
2022-09-18T01:16:15.724Z,100356.69
2022-09-18T01:18:56.277Z,100367.88
2022-09-18T01:21:33.705Z,100359.66
2022-09-18T01:24:45.025Z,100359.66
2022-09-18T01:27:30.248Z,100374.13
2022-09-18T01:30:06.201Z,100366.50
2022-09-18T01:32:43.385Z,100363.06
2022-09-18T01:35:40.471Z,100351.91
2022-09-18T01:38:13.311Z,100354.44
2022-09-18T01:40:49.469Z,100357.97
2022-09-18T01:43:22.027Z,100346.81
2022-09-18T01:45:58.475Z,100350.44
2022-09-18T01:48:40.755Z,100354.44
2022-09-18T01:51:20.226Z,100352.88
2022-09-18T01:53:54.703Z,100358.22
2022-09-18T01:56:30.888Z,100354.75
2022-09-18T01:59:04.941Z,100349.47
2022-09-18T02:01:49.335Z,100352.34
2022-09-18T02:04:24.936Z,100342.06
2022-09-18T02:07:08.497Z,100348.88
2022-09-18T02:09:37.736Z,100350.59
2022-09-18T02:12:12.159Z,100339.50
2022-09-18T02:14:46.579Z,100340.31
2022-09-18T02:17:41.401Z,100336.91
2022-09-18T02:20:20.918Z,100338.72
2022-09-18T02:22:53.065Z,100338.63
2022-09-18T02:25:36.049Z,100338.50
2022-09-18T02:28:08.952Z,100338.63
2022-09-18T02:30:39.271Z,100329.84
2022-09-18T02:33:31.740Z,100328.94
2022-09-18T02:36:41.019Z,100323.81
2022-09-18T02:39:30.929Z,100316.09
2022-09-18T02:42:22.260Z,100318.63
2022-09-18T02:45:03.985Z,100322.88
2022-09-18T02:47:48.941Z,100312.44
2022-09-18T02:50:32.686Z,100325.28
2022-09-18T02:53:10.555Z,100313.31
2022-09-18T02:55:49.249Z,100321.03
2022-09-18T02:58:28.431Z,100315.91
2022-09-18T03:01:02.378Z,100322.63
2022-09-18T03:03:33.542Z,100319.22
2022-09-18T03:06:08.327Z,100311.53
2022-09-18T03:08:38.030Z,100311.66
2022-09-18T03:11:06.559Z,100315.81
2022-09-18T03:13:37.704Z,100318.41
2022-09-18T03:16:06.340Z,100317.63
2022-09-18T03:18:34.203Z,100322.00
2022-09-18T03:21:02.602Z,100320.31
2022-09-18T03:23:31.897Z,100316.78
2022-09-18T03:26:12.382Z,100326.28
2022-09-18T03:28:40.226Z,100326.28
2022-09-18T03:31:10.184Z,100321.13
2022-09-18T03:33:39.033Z,100316.94
2022-09-18T03:36:10.903Z,100320.22
2022-09-18T03:38:41.613Z,100316.03
2022-09-18T03:41:09.815Z,100312.66
2022-09-18T03:43:42.068Z,100308.38
2022-09-18T03:46:12.213Z,100296.91
2022-09-18T03:48:40.436Z,100310.75
2022-09-18T03:51:08.569Z,100316.66
2022-09-18T03:53:44.512Z,100304.69
2022-09-18T03:56:32.595Z,100311.47
2022-09-18T03:59:00.488Z,100309.69
2022-09-18T04:02:01.072Z,100295.06
2022-09-18T04:04:29.550Z,100301.13
2022-09-18T04:07:16.071Z,100301.81
2022-09-18T04:10:14.884Z,100306.47
2022-09-18T04:12:45.614Z,100303.09
2022-09-18T04:15:24.005Z,100303.09
2022-09-18T04:17:53.820Z,100310.88
2022-09-18T04:20:21.938Z,100305.88
2022-09-18T04:22:50.143Z,100299.88
2022-09-18T04:25:22.909Z,100295.56
2022-09-18T04:27:51.997Z,100299.97
2022-09-18T04:30:21.578Z,100295.72
2022-09-18T04:32:51.605Z,100304.31
2022-09-18T04:35:21.372Z,100296.44
2022-09-18T04:37:50.448Z,100295.47
2022-09-18T04:40:23.717Z,100297.34
2022-09-18T04:42:52.357Z,100295.59
2022-09-18T04:45:20.168Z,100306.16
2022-09-18T04:47:49.188Z,100300.16
2022-09-18T04:50:19.618Z,100290.59
2022-09-18T04:53:05.851Z,100292.38
2022-09-18T04:55:36.376Z,100294.22
2022-09-18T04:58:04.423Z,100295.81
2022-09-18T05:00:35.923Z,100302.78
2022-09-18T05:03:04.350Z,100290.66
2022-09-18T05:05:38.671Z,100296.59
2022-09-18T05:08:07.978Z,100302.59
2022-09-18T05:10:37.109Z,100296.72
2022-09-18T05:13:06.108Z,100307.94
2022-09-18T05:15:39.103Z,100304.31
2022-09-18T05:18:11.480Z,100306.09
2022-09-18T05:20:39.972Z,100310.34
2022-09-18T05:23:09.566Z,100312.97
2022-09-18T05:25:39.758Z,100310.41
2022-09-18T05:28:10.865Z,100307.91
2022-09-18T05:30:44.063Z,100306.94
2022-09-18T05:33:13.166Z,100304.34
2022-09-18T05:35:42.831Z,100317.00
2022-09-18T05:38:11.802Z,100305.66
2022-09-18T05:40:45.019Z,100313.53
2022-09-18T05:43:13.851Z,100325.66
2022-09-18T05:45:42.579Z,100312.66
2022-09-18T05:48:25.268Z,100312.56
2022-09-18T05:50:53.187Z,100315.25
2022-09-18T05:53:22.025Z,100310.94
2022-09-18T05:56:01.141Z,100314.25
2022-09-18T05:58:30.783Z,100312.66
2022-09-18T06:01:01.213Z,100317.91
2022-09-18T06:03:41.527Z,100316.34
2022-09-18T06:06:09.414Z,100317.13
2022-09-18T06:08:37.667Z,100318.00
2022-09-18T06:11:07.300Z,100320.81
2022-09-18T06:13:35.161Z,100316.47
2022-09-18T06:16:04.642Z,100325.16
2022-09-18T06:18:47.417Z,100319.22
2022-09-18T06:21:16.259Z,100318.34
2022-09-18T06:23:49.744Z,100318.44
2022-09-18T06:26:31.368Z,100314.97
2022-09-18T06:28:59.296Z,100325.34
2022-09-18T06:31:33.161Z,100325.22
2022-09-18T06:34:11.053Z,100320.84
2022-09-18T06:36:49.143Z,100318.34
2022-09-18T06:39:24.206Z,100314.84
2022-09-18T06:41:59.232Z,100323.75
2022-09-18T06:44:55.766Z,100324.91
2022-09-18T06:47:25.271Z,100315.34
2022-09-18T06:49:53.811Z,100324.13
2022-09-18T06:52:24.564Z,100318.22
2022-09-18T06:54:57.058Z,100307.78
2022-09-18T06:57:34.610Z,100313.84
2022-09-18T07:00:09.520Z,100311.84
2022-09-18T07:02:40.145Z,100312.00
2022-09-18T07:05:47.876Z,100313.66
2022-09-18T07:08:30.023Z,100314.59
2022-09-18T07:11:08.257Z,100313.56
2022-09-18T07:13:38.756Z,100312.06
2022-09-18T07:16:09.798Z,100309.63
2022-09-18T07:18:38.991Z,100313.81
2022-09-18T07:21:10.516Z,100306.94
2022-09-18T07:23:41.042Z,100306.09
2022-09-18T07:26:10.351Z,100302.56
2022-09-18T07:28:39.909Z,100300.00
2022-09-18T07:31:18.356Z,100303.38
2022-09-18T07:33:51.927Z,100305.25
2022-09-18T07:36:21.773Z,100293.09
2022-09-18T07:38:52.545Z,100299.25
2022-09-18T07:41:23.756Z,100304.44
2022-09-18T07:43:53.154Z,100300.03
2022-09-18T07:46:21.695Z,100303.50
2022-09-18T07:48:52.796Z,100305.31
2022-09-18T07:51:27.333Z,100308.94
2022-09-18T07:53:57.235Z,100303.81
2022-09-18T07:56:42.499Z,100294.41
2022-09-18T07:59:14.109Z,100294.41
2022-09-18T08:01:42.580Z,100295.44
2022-09-18T08:04:12.175Z,100297.19
2022-09-18T08:07:04.233Z,100298.06
2022-09-18T08:09:55.581Z,100301.53
2022-09-18T08:12:35.952Z,100300.56
2022-09-18T08:15:25.176Z,100305.63
2022-09-18T08:18:13.223Z,100305.81
2022-09-18T08:20:59.622Z,100298.75
2022-09-18T08:24:03.508Z,100292.34
2022-09-18T08:26:31.473Z,100296.69
2022-09-18T08:28:59.704Z,100300.16
2022-09-18T08:31:29.873Z,100303.66
2022-09-18T08:33:58.616Z,100305.31
2022-09-18T08:36:27.213Z,100310.50
2022-09-18T08:39:11.546Z,100307.94
2022-09-18T08:42:28.895Z,100317.34
2022-09-18T08:45:03.800Z,100318.31
2022-09-18T08:47:47.005Z,100316.59
2022-09-18T08:50:26.536Z,100320.53
2022-09-18T08:53:05.824Z,100321.41
2022-09-18T08:55:49.792Z,100325.78
2022-09-18T08:58:42.992Z,100319.34
2022-09-18T09:01:18.877Z,100321.03
2022-09-18T09:04:17.491Z,100327.00
2022-09-18T09:07:09.241Z,100326.97
2022-09-18T09:10:04.245Z,100323.66
2022-09-18T09:12:47.992Z,100318.38
2022-09-18T09:15:33.677Z,100324.38
2022-09-18T09:18:17.133Z,100325.09
2022-09-18T09:20:53.427Z,100323.38
2022-09-18T09:23:49.245Z,100326.09
2022-09-18T09:26:42.905Z,100327.91
2022-09-18T09:29:27.263Z,100321.06
2022-09-18T09:32:25.705Z,100329.88
2022-09-18T09:35:26.157Z,100320.06
2022-09-18T09:38:32.171Z,100329.69
2022-09-18T09:41:15.972Z,100318.78
2022-09-18T09:43:58.469Z,100309.09
2022-09-18T09:46:58.283Z,100305.47
2022-09-18T09:49:31.724Z,100303.03
2022-09-18T09:52:14.183Z,100297.00
2022-09-18T09:54:44.715Z,100291.84
2022-09-18T09:57:26.387Z,100294.28
2022-09-18T10:00:12.708Z,100301.41
2022-09-18T10:03:12.857Z,100298.00
2022-09-18T10:05:53.944Z,100291.97
2022-09-18T10:08:34.661Z,100293.00
2022-09-18T10:11:11.096Z,100296.69
2022-09-18T10:13:47.253Z,100303.72
2022-09-18T10:16:22.483Z,100307.16
2022-09-18T10:18:51.023Z,100307.00
2022-09-18T10:21:24.613Z,100301.78
2022-09-18T10:24:00.998Z,100305.16
2022-09-18T10:26:39.725Z,100300.94
2022-09-18T10:29:10.011Z,100305.56
2022-09-18T10:31:52.445Z,100288.69
2022-09-18T10:34:40.044Z,100288.91
2022-09-18T10:37:16.562Z,100288.09
2022-09-18T10:39:51.790Z,100293.34
2022-09-18T10:42:27.481Z,100281.47
2022-09-18T10:45:07.693Z,100290.97
2022-09-18T10:47:44.543Z,100295.75
2022-09-18T10:50:20.588Z,100287.00
2022-09-18T10:52:54.772Z,100297.38
2022-09-18T10:55:32.387Z,100301.81
2022-09-18T10:58:14.926Z,100306.06
2022-09-18T11:00:58.571Z,100303.44
2022-09-18T11:03:42.145Z,100306.00
2022-09-18T11:06:25.325Z,100305.09
2022-09-18T11:09:02.918Z,100300.69
2022-09-18T11:11:43.397Z,100301.78
2022-09-18T11:14:27.336Z,100291.34
2022-09-18T11:17:02.774Z,100283.34
2022-09-18T11:19:40.048Z,100288.63
2022-09-18T11:22:35.166Z,100282.72
2022-09-18T11:25:26.389Z,100286.19
2022-09-18T11:28:01.811Z,100291.25
2022-09-18T11:30:38.613Z,100293.53
2022-09-18T11:33:21.477Z,100291.66
2022-09-18T11:35:57.619Z,100297.63
2022-09-18T11:38:28.442Z,100300.81
2022-09-18T11:41:01.510Z,100298.16
2022-09-18T11:43:40.985Z,100292.88
2022-09-18T11:46:28.209Z,100297.00
2022-09-18T11:49:04.785Z,100305.56
2022-09-18T11:51:50.300Z,100313.66
2022-09-18T11:54:32.133Z,100311.19
2022-09-18T11:57:12.697Z,100309.28
2022-09-18T11:59:51.232Z,100309.34
2022-09-18T12:02:36.632Z,100312.72
2022-09-18T12:05:18.203Z,100291.97
2022-09-18T12:08:00.582Z,100298.91
2022-09-18T12:11:01.306Z,100295.34
2022-09-18T12:13:45.667Z,100301.41
2022-09-18T12:16:22.811Z,100286.56
2022-09-18T12:19:07.482Z,100290.09
2022-09-18T12:21:45.031Z,100284.91
2022-09-18T12:24:16.089Z,100286.81
2022-09-18T12:27:03.503Z,100269.28
2022-09-18T12:29:59.482Z,100274.63
2022-09-18T12:32:56.271Z,100267.63
2022-09-18T12:35:53.137Z,100258.25
2022-09-18T12:38:50.435Z,100253.94
2022-09-18T12:41:47.212Z,100250.44
2022-09-18T12:44:59.317Z,100243.75
2022-09-18T12:47:46.919Z,100230.09
2022-09-18T12:50:36.801Z,100236.88
2022-09-18T12:53:23.444Z,100239.59
2022-09-18T12:56:13.747Z,100236.03
2022-09-18T12:59:21.635Z,100230.13
2022-09-18T13:01:57.813Z,100228.31
2022-09-18T13:04:32.142Z,100230.13
2022-09-18T13:07:11.320Z,100226.56
2022-09-18T13:09:50.661Z,100236.16
2022-09-18T13:12:27.304Z,100236.94
2022-09-18T13:15:01.152Z,100235.28
2022-09-18T13:17:37.458Z,100233.84
2022-09-18T13:20:16.452Z,100232.91
2022-09-18T13:22:53.210Z,100220.19
2022-09-18T13:25:54.381Z,100224.56
2022-09-18T13:28:38.021Z,100218.78
2022-09-18T13:31:28.195Z,100218.19
2022-09-18T13:34:05.510Z,100218.09
2022-09-18T13:37:07.047Z,100220.78
2022-09-18T13:39:55.385Z,100225.78
2022-09-18T13:43:43.126Z,100217.19
2022-09-18T13:46:33.737Z,100218.25
2022-09-18T13:49:18.013Z,100226.19
2022-09-18T13:51:46.697Z,100221.88
2022-09-18T13:54:29.155Z,100213.84
2022-09-18T13:57:28.335Z,100207.81
2022-09-18T13:59:58.698Z,100203.25
2022-09-18T14:02:37.195Z,100213.66
2022-09-18T14:05:37.607Z,100221.53
2022-09-18T14:08:37.168Z,100214.69
2022-09-18T14:11:17.317Z,100210.22
2022-09-18T14:13:52.303Z,100207.59
2022-09-18T14:16:44.608Z,100224.72
2022-09-18T14:19:36.922Z,100216.88
2022-09-18T14:22:22.116Z,100214.34
2022-09-18T14:25:00.520Z,100213.59
2022-09-18T14:27:45.777Z,100221.31
2022-09-18T14:30:22.225Z,100217.00
2022-09-18T14:33:18.930Z,100213.59
2022-09-18T14:36:00.311Z,100204.16
2022-09-18T14:38:34.826Z,100192.00
2022-09-18T14:41:20.919Z,100184.22
2022-09-18T14:43:52.805Z,100168.59
2022-09-18T14:46:24.802Z,100166.91
2022-09-18T14:48:53.325Z,100161.59
2022-09-18T14:51:23.699Z,100168.63
2022-09-18T14:53:54.839Z,100154.81
2022-09-18T14:56:29.373Z,100151.31
2022-09-18T14:59:02.970Z,100146.19
2022-09-18T15:01:40.585Z,100153.94
2022-09-18T15:04:17.938Z,100160.75
2022-09-18T15:06:49.811Z,100163.38
2022-09-18T15:09:26.634Z,100168.59
2022-09-18T15:12:03.162Z,100162.47
2022-09-18T15:14:41.801Z,100169.50
2022-09-18T15:17:23.103Z,100165.25
2022-09-18T15:19:59.769Z,100168.66
2022-09-18T15:22:29.780Z,100170.31
2022-09-18T15:25:00.749Z,100164.16
2022-09-18T15:27:30.088Z,100170.31
2022-09-18T15:30:04.688Z,100159.69
2022-09-18T15:32:39.492Z,100163.91
2022-09-18T15:35:18.074Z,100176.09
2022-09-18T15:37:53.126Z,100172.44
2022-09-18T15:40:30.105Z,100181.94
2022-09-18T15:43:01.927Z,100169.81
2022-09-18T15:45:32.662Z,100182.09
2022-09-18T15:48:34.055Z,100184.53
2022-09-18T15:51:09.695Z,100186.31
2022-09-18T15:53:38.793Z,100196.56
2022-09-18T15:56:18.137Z,100194.16
2022-09-18T15:58:54.123Z,100199.78
2022-09-18T16:01:29.044Z,100194.75
2022-09-18T16:04:18.236Z,100205.97
2022-09-18T16:06:59.510Z,100203.25
2022-09-18T16:09:40.862Z,100198.75
2022-09-18T16:12:39.683Z,100199.56
2022-09-18T16:15:20.976Z,100203.81
2022-09-18T16:17:57.469Z,100204.69
2022-09-18T16:20:31.935Z,100193.34
2022-09-18T16:23:25.778Z,100207.22
2022-09-18T16:26:10.607Z,100196.91
2022-09-18T16:28:42.965Z,100203.22
2022-09-18T16:31:12.072Z,100189.19
2022-09-18T16:33:51.445Z,100194.25
2022-09-18T16:36:29.725Z,100199.56
2022-09-18T16:39:01.445Z,100195.13
2022-09-18T16:41:31.002Z,100194.88
2022-09-18T16:44:00.001Z,100188.16
2022-09-18T16:46:37.153Z,100186.88
2022-09-18T16:49:05.196Z,100192.94
2022-09-18T16:51:34.403Z,100191.25
2022-09-18T16:54:02.371Z,100192.22
2022-09-18T16:56:35.354Z,100190.31
2022-09-18T16:59:06.986Z,100206.75
2022-09-18T17:02:00.447Z,100198.13
2022-09-18T17:04:28.315Z,100203.97
2022-09-18T17:07:00.108Z,100205.78
2022-09-18T17:09:30.783Z,100222.16
2022-09-18T17:12:00.560Z,100213.41
2022-09-18T17:14:28.406Z,100206.47
2022-09-18T17:16:56.550Z,100210.00
2022-09-18T17:19:24.481Z,100202.94
2022-09-18T17:21:53.190Z,100205.53
2022-09-18T17:24:26.008Z,100203.56
2022-09-18T17:26:56.647Z,100206.25
2022-09-18T17:29:24.555Z,100214.72
2022-09-18T17:31:53.458Z,100218.03
2022-09-18T17:34:22.086Z,100213.72
2022-09-18T17:36:50.425Z,100216.13
2022-09-18T17:39:18.662Z,100214.06
2022-09-18T17:41:51.147Z,100219.13
2022-09-18T17:44:20.112Z,100235.53
2022-09-18T17:46:51.398Z,100233.66
2022-09-18T17:49:20.382Z,100221.56
2022-09-18T17:51:49.278Z,100231.88
2022-09-18T17:54:18.710Z,100237.94
2022-09-18T17:56:49.508Z,100232.00
2022-09-18T17:59:18.820Z,100222.47
2022-09-18T18:01:48.673Z,100244.72
2022-09-18T18:04:16.838Z,100252.41
2022-09-18T18:06:48.664Z,100248.03
2022-09-18T18:09:16.820Z,100251.81
2022-09-18T18:11:46.085Z,100255.00
2022-09-18T18:14:16.436Z,100252.34
2022-09-18T18:16:47.951Z,100259.09
2022-09-18T18:19:18.953Z,100262.66
2022-09-18T18:21:49.859Z,100265.31
2022-09-18T18:24:19.484Z,100262.69
2022-09-18T18:26:49.869Z,100255.22
2022-09-18T18:29:21.430Z,100250.88
2022-09-18T18:31:52.599Z,100262.94
2022-09-18T18:34:22.099Z,100272.31
2022-09-18T18:36:52.857Z,100274.13
2022-09-18T18:39:21.359Z,100275.81
2022-09-18T18:41:49.762Z,100286.97
2022-09-18T18:44:21.053Z,100275.81
2022-09-18T18:46:53.431Z,100281.13
2022-09-18T18:49:21.693Z,100295.94
2022-09-18T18:51:51.844Z,100297.56
2022-09-18T18:54:22.219Z,100298.44
2022-09-18T18:56:52.665Z,100300.25
2022-09-18T18:59:24.262Z,100308.81
2022-09-18T19:01:58.982Z,100309.78
2022-09-18T19:04:36.590Z,100323.22
2022-09-18T19:07:07.013Z,100326.38
2022-09-18T19:09:36.943Z,100341.00
2022-09-18T19:12:07.148Z,100334.47
2022-09-18T19:14:38.029Z,100342.94
2022-09-18T19:17:10.076Z,100328.38
2022-09-18T19:19:38.987Z,100326.88
2022-09-18T19:22:18.782Z,100325.97
2022-09-18T19:24:47.620Z,100331.88
2022-09-18T19:27:15.575Z,100329.22
2022-09-18T19:29:49.042Z,100326.78
2022-09-18T19:32:18.889Z,100321.47
2022-09-18T19:34:54.436Z,100317.63
2022-09-18T19:37:25.085Z,100320.06
2022-09-18T19:39:56.388Z,100324.31
2022-09-18T19:42:28.092Z,100330.16
2022-09-18T19:45:06.354Z,100326.84
2022-09-18T19:47:45.730Z,100337.19
2022-09-18T19:50:24.603Z,100340.91
2022-09-18T19:52:54.664Z,100349.50
2022-09-18T19:55:23.985Z,100345.41
2022-09-18T19:57:56.848Z,100358.44
2022-09-18T20:00:27.197Z,100348.19
2022-09-18T20:02:58.858Z,100356.59
2022-09-18T20:05:28.085Z,100353.13
2022-09-18T20:07:56.046Z,100347.38
2022-09-18T20:10:24.368Z,100345.53
2022-09-18T20:12:53.856Z,100347.88
2022-09-18T20:15:23.253Z,100336.22
2022-09-18T20:17:55.554Z,100343.34
2022-09-18T20:20:24.501Z,100345.03
2022-09-18T20:22:55.717Z,100339.09
2022-09-18T20:25:25.350Z,100345.84
2022-09-18T20:27:53.744Z,100357.13
2022-09-18T20:30:22.925Z,100351.16
2022-09-18T20:32:54.209Z,100350.41
2022-09-18T20:35:22.328Z,100345.03
2022-09-18T20:37:51.407Z,100342.19
2022-09-18T20:40:19.389Z,100342.13
2022-09-18T20:42:51.448Z,100342.94
2022-09-18T20:45:19.429Z,100336.09
2022-09-18T20:47:49.619Z,100355.28
2022-09-18T20:50:21.155Z,100370.03
2022-09-18T20:52:48.936Z,100366.44
2022-09-18T20:55:17.743Z,100360.72
2022-09-18T20:57:46.286Z,100364.03
2022-09-18T21:00:17.281Z,100360.53
2022-09-18T21:02:51.074Z,100361.16
2022-09-18T21:05:21.608Z,100360.47
2022-09-18T21:07:54.192Z,100362.94
2022-09-18T21:10:21.953Z,100360.66
2022-09-18T21:12:49.714Z,100363.69
2022-09-18T21:15:17.862Z,100355.81
2022-09-18T21:17:48.916Z,100361.22
2022-09-18T21:20:17.239Z,100360.34
2022-09-18T21:23:07.126Z,100366.34
2022-09-18T21:25:35.064Z,100359.97
2022-09-18T21:28:05.868Z,100359.78
2022-09-18T21:30:34.857Z,100376.09
2022-09-18T21:33:02.689Z,100364.16
2022-09-18T21:35:30.531Z,100376.34
2022-09-18T21:38:01.188Z,100373.91
2022-09-18T21:40:29.157Z,100379.09
2022-09-18T21:42:56.984Z,100382.44
2022-09-18T21:45:25.021Z,100383.47
2022-09-18T21:47:53.680Z,100384.91
2022-09-18T21:50:22.292Z,100377.25
2022-09-18T21:52:51.291Z,100385.34
2022-09-18T21:55:20.473Z,100386.16
2022-09-18T21:57:50.943Z,100381.91
2022-09-18T22:00:18.962Z,100375.78
2022-09-18T22:02:46.864Z,100380.72
2022-09-18T22:05:15.965Z,100385.66
2022-09-18T22:07:44.721Z,100388.97
2022-09-18T22:10:13.457Z,100389.09
2022-09-18T22:12:42.728Z,100394.97
2022-09-18T22:15:11.006Z,100393.97
2022-09-18T22:17:39.520Z,100406.16
2022-09-18T22:20:09.103Z,100403.69
2022-09-18T22:22:38.111Z,100410.28
2022-09-18T22:25:07.171Z,100417.44
2022-09-18T22:27:35.882Z,100420.91
2022-09-18T22:30:07.129Z,100418.28
2022-09-18T22:32:35.369Z,100419.84
2022-09-18T22:35:03.569Z,100425.81
2022-09-18T22:37:31.851Z,100420.69
2022-09-18T22:40:01.390Z,100422.53
2022-09-18T22:42:29.716Z,100423.19
2022-09-18T22:44:57.530Z,100423.59
2022-09-18T22:47:28.396Z,100426.31
2022-09-18T22:49:56.192Z,100433.88
2022-09-18T22:52:24.125Z,100429.59
2022-09-18T22:54:54.365Z,100428.19
2022-09-18T22:57:22.230Z,100429.09
2022-09-18T22:59:50.114Z,100428.59
2022-09-18T23:02:19.654Z,100429.22
2022-09-18T23:04:50.011Z,100436.19
2022-09-18T23:07:18.141Z,100444.16
2022-09-18T23:09:47.476Z,100451.28
2022-09-18T23:12:15.441Z,100451.75
2022-09-18T23:14:44.542Z,100449.34
2022-09-18T23:17:12.399Z,100447.72
2022-09-18T23:19:41.592Z,100449.41
2022-09-18T23:22:12.995Z,100441.88
2022-09-18T23:24:41.043Z,100448.59
2022-09-18T23:27:08.853Z,100454.84
2022-09-18T23:29:38.419Z,100456.63
2022-09-18T23:32:07.148Z,100457.34
2022-09-18T23:34:34.996Z,100461.69
2022-09-18T23:37:02.853Z,100462.53
2022-09-18T23:39:34.623Z,100459.28
2022-09-18T23:42:04.454Z,100463.53
2022-09-18T23:44:33.092Z,100461.88
2022-09-18T23:47:01.539Z,100459.97
2022-09-18T23:49:31.317Z,100450.34
2022-09-18T23:51:59.807Z,100454.94
2022-09-18T23:54:30.803Z,100453.28
2022-09-18T23:56:59.917Z,100451.13
2022-09-18T23:59:28.328Z,100452.06
